Time;durP1;ratioP1;P1;durP2;ratioP2;P2;SDS_P1;SDS_P2;PMS_P1;PMS_P2;Temp;Humidity;BMP_temperature;BMP_pressure;BME280_temperature;BME280_humidity;BME280_pressure;Samples;Min_cycle;Max_cycle;Signal;HPM_P1;HPM_P2
2023/01/03 00:00:48;;;;;;;51.40;19.55;;;-0.40;99.90;;;;;;4951584;29;20086;-87
2023/01/03 00:03:16;;;;;;;46.50;19.00;;;-0.40;99.90;;;;;;4951238;29;20027;-87
2023/01/03 00:05:46;;;;;;;43.70;17.95;;;-0.40;99.90;;;;;;4951493;29;20047;-87
2023/01/03 00:08:12;;;;;;;;;;;-0.40;99.90;;;;;;4951731;29;20390;-87
2023/01/03 00:10:38;;;;;;;37.75;16.52;;;-0.50;99.90;;;;;;4935244;29;19997;-87
2023/01/03 00:13:04;;;;;;;43.33;18.13;;;-0.50;99.90;;;;;;4951155;29;20038;-86
2023/01/03 00:15:32;;;;;;;37.92;17.23;;;-0.60;99.90;;;;;;4951145;29;20028;-87
2023/01/03 00:17:58;;;;;;;41.15;16.92;;;-0.60;99.90;;;;;;4951601;29;20473;-87
2023/01/03 00:20:23;;;;;;;39.35;17.33;;;-0.70;99.90;;;;;;4951123;29;20055;-87
2023/01/03 00:22:49;;;;;;;39.30;18.33;;;-0.70;99.90;;;;;;4950883;29;20032;-87
2023/01/03 00:25:15;;;;;;;40.17;16.92;;;-0.70;99.90;;;;;;4951025;29;20119;-88
2023/01/03 00:27:40;;;;;;;35.28;15.60;;;-0.70;99.90;;;;;;4951096;29;20065;-87
2023/01/03 00:30:07;;;;;;;34.00;16.33;;;-0.70;99.90;;;;;;4951052;29;20127;-88
2023/01/03 00:32:32;;;;;;;31.85;13.43;;;-0.70;99.90;;;;;;4950956;29;20287;-87
2023/01/03 00:34:58;;;;;;;26.88;11.90;;;-0.60;99.90;;;;;;4950937;29;20035;-88
2023/01/03 00:37:24;;;;;;;32.45;15.15;;;-0.60;99.90;;;;;;4950926;29;20028;-87
2023/01/03 00:39:49;;;;;;;25.70;11.30;;;-0.60;99.90;;;;;;4950971;29;20047;-88
2023/01/03 00:42:15;;;;;;;22.77;10.05;;;-0.50;99.90;;;;;;4950964;29;20585;-89
2023/01/03 00:44:40;;;;;;;27.85;13.43;;;-0.50;99.90;;;;;;4950830;29;20036;-88
2023/01/03 00:47:06;;;;;;;24.63;11.60;;;-0.50;99.90;;;;;;4950957;29;20042;-86
2023/01/03 00:49:32;;;;;;;19.60;10.35;;;-0.50;99.90;;;;;;4951314;29;20490;-89
2023/01/03 00:51:58;;;;;;;22.40;11.43;;;-0.60;99.90;;;;;;4951072;29;20035;-88
2023/01/03 00:54:24;;;;;;;25.60;12.55;;;-0.60;99.90;;;;;;4935023;29;20137;-88
2023/01/03 00:56:50;;;;;;;23.77;11.00;;;-0.60;99.90;;;;;;4935878;29;20274;-88
2023/01/03 00:59:18;;;;;;;22.92;11.68;;;-0.60;99.90;;;;;;4950775;29;20478;-87
2023/01/03 01:01:53;;;;;;;24.88;11.05;;;-0.60;99.90;;;;;;4950733;29;20024;-88
2023/01/03 01:04:27;;;;;;;17.60;8.75;;;-0.60;99.90;;;;;;4950533;29;20042;-87
2023/01/03 01:06:58;;;;;;;15.00;7.78;;;-0.60;99.90;;;;;;4950702;29;20470;-87
2023/01/03 01:09:30;;;;;;;18.33;7.95;;;-0.60;99.90;;;;;;4951189;29;20076;-87
2023/01/03 01:11:56;;;;;;;19.13;8.77;;;-0.70;99.90;;;;;;4951869;29;20433;-86
2023/01/03 01:14:25;;;;;;;17.73;8.93;;;-0.70;99.90;;;;;;4952210;29;20023;-88
2023/01/03 01:16:56;;;;;;;17.08;8.93;;;-0.70;99.90;;;;;;4952054;29;20028;-87
2023/01/03 01:19:30;;;;;;;16.45;9.02;;;-0.70;99.90;;;;;;4951947;29;20028;-88
2023/01/03 01:21:56;;;;;;;23.83;11.10;;;-0.80;99.90;;;;;;4951006;29;20055;-87
2023/01/03 01:24:23;;;;;;;26.98;12.57;;;-0.80;99.90;;;;;;4951042;29;20486;-88
2023/01/03 01:26:49;;;;;;;20.77;10.65;;;-0.90;99.90;;;;;;4950939;29;20047;-88
2023/01/03 01:29:15;;;;;;;23.27;10.23;;;-0.90;99.90;;;;;;4950737;29;20031;-88
2023/01/03 01:31:42;;;;;;;20.70;10.63;;;-0.90;99.90;;;;;;4950726;29;20032;-88
2023/01/03 01:34:08;;;;;;;19.98;9.80;;;-1.00;99.90;;;;;;4950693;29;20119;-87
2023/01/03 01:36:40;;;;;;;18.02;9.45;;;-1.00;99.90;;;;;;4950456;29;20036;-87
2023/01/03 01:39:12;;;;;;;19.23;9.52;;;-1.00;99.90;;;;;;4950482;29;20032;-87
2023/01/03 01:44:54;;;;;;;23.98;10.57;;;-1.00;99.90;;;;;;4935833;29;20087;-88
2023/01/03 01:47:29;;;;;;;20.83;10.20;;;-1.00;99.90;;;;;;4937656;29;20043;-88
2023/01/03 01:50:02;;;;;;;21.15;10.20;;;-1.00;99.90;;;;;;4937995;29;20055;-88
2023/01/03 01:52:31;;;;;;;22.23;10.30;;;-1.00;99.90;;;;;;4953713;29;20035;-88
2023/01/03 01:55:00;;;;;;;24.42;12.07;;;-1.00;99.90;;;;;;4953559;29;20031;-88
2023/01/03 01:57:25;;;;;;;27.33;11.88;;;-1.00;99.90;;;;;;4953620;29;20114;-88
2023/01/03 01:59:51;;;;;;;26.83;12.57;;;-1.00;99.90;;;;;;4953690;29;20550;-86
2023/01/03 02:02:20;;;;;;;29.58;14.10;;;-1.00;99.90;;;;;;4953745;29;20027;-88
2023/01/03 02:04:48;;;;;;;32.28;14.23;;;-1.00;99.90;;;;;;4953525;29;20036;-89
2023/01/03 02:07:15;;;;;;;32.47;12.95;;;-1.00;99.90;;;;;;4953534;29;20035;-88
2023/01/03 02:09:40;;;;;;;23.95;10.65;;;-1.00;99.90;;;;;;4953532;29;20027;-86
2023/01/03 02:15:38;;;;;;;22.20;10.88;;;-1.10;99.90;;;;;;4938789;29;20047;-87
2023/01/03 02:18:03;;;;;;;25.70;10.05;;;-1.10;99.90;;;;;;4953734;29;20036;-87
2023/01/03 02:21:00;;;;;;;33.85;13.93;;;-1.10;99.90;;;;;;4937129;29;20048;-87
2023/01/03 02:23:47;;;;;;;24.15;10.45;;;-1.10;99.90;;;;;;4937166;29;20032;-86
2023/01/03 02:26:51;;;;;;;37.95;15.98;;;-1.20;99.90;;;;;;4937048;29;20069;-87
2023/01/03 02:29:31;;;;;;;33.15;14.48;;;-1.20;99.90;;;;;;4953076;29;20020;-87
2023/01/03 02:32:11;;;;;;;39.70;15.60;;;-1.20;99.90;;;;;;4936962;29;20031;-87
2023/01/03 02:34:57;;;;;;;27.75;12.65;;;-1.20;99.90;;;;;;4936871;29;20063;-86
2023/01/03 02:37:29;;;;;;;30.80;13.40;;;-1.20;99.90;;;;;;4953240;29;20035;-87
2023/01/03 02:40:18;;;;;;;33.58;13.32;;;-1.20;99.90;;;;;;4937096;29;20028;-87
2023/01/03 02:43:01;;;;;;;30.20;13.23;;;-1.20;99.90;;;;;;4937065;29;20028;-87
2023/01/03 02:46:04;;;;;;;33.83;13.05;;;-1.20;99.90;;;;;;4936888;29;20034;-87
2023/01/03 02:48:58;;;;;;;31.75;13.10;;;-1.20;99.90;;;;;;4936630;29;20038;-86
2023/01/03 02:51:29;;;;;;;25.73;12.43;;;-1.10;99.90;;;;;;4953313;29;20023;-87
2023/01/03 02:53:57;;;;;;;25.38;11.48;;;-1.00;99.90;;;;;;4937763;29;20036;-87
2023/01/03 02:56:34;;;;;;;24.40;11.25;;;-1.00;99.90;;;;;;4952524;29;20024;-87
2023/01/03 02:59:05;;;;;;;25.02;11.70;;;-0.90;99.90;;;;;;4952786;29;20504;-86
2023/01/03 03:01:31;;;;;;;;;;;-0.90;99.90;;;;;;4953032;29;20501;-87
2023/01/03 03:03:58;;;;;;;21.45;10.63;;;-0.90;99.90;;;;;;4952323;29;19954;-87
2023/01/03 03:06:57;;;;;;;28.92;13.35;;;-1.00;99.90;;;;;;4952407;29;20055;-87
2023/01/03 03:09:23;;;;;;;32.83;13.50;;;-1.00;99.90;;;;;;4952474;29;20039;-87
2023/01/03 03:14:47;;;;;;;26.90;12.77;;;-1.00;99.90;;;;;;4937513;29;20441;-87
2023/01/03 03:17:21;;;;;;;25.27;11.43;;;-1.00;99.90;;;;;;4937310;29;20379;-87
2023/01/03 03:25:44;;;;;;;24.98;11.98;;;-1.00;99.90;;;;;;4937116;29;20090;-86
2023/01/03 03:28:34;;;;;;;26.70;11.98;;;-1.00;99.90;;;;;;4936081;29;20031;-87
2023/01/03 03:31:21;;;;;;;25.42;11.52;;;-1.00;99.90;;;;;;4936108;29;20038;-86
2023/01/03 03:33:57;;;;;;;27.05;12.15;;;-1.00;99.90;;;;;;4935742;29;20026;-87
2023/01/03 03:36:42;;;;;;;27.58;11.90;;;-1.10;99.90;;;;;;4936067;29;20032;-87
2023/01/03 03:44:59;;;;;;;27.60;11.70;;;-1.00;99.90;;;;;;4922495;29;20050;-89
2023/01/03 03:45:03;;;;;;;25.92;11.57;;;-1.00;99.90;;;;;;4936738;29;20046;-86
2023/01/03 03:47:38;;;;;;;27.95;12.35;;;-1.10;99.90;;;;;;4936819;29;20031;-89
2023/01/03 03:50:29;;;;;;;27.60;13.48;;;-1.10;99.90;;;;;;4936052;29;20118;-88
2023/01/03 03:52:58;;;;;;;;;;;-1.10;99.90;;;;;;4936011;29;20035;-88
2023/01/03 03:55:47;;;;;;;21.75;10.27;;;-1.10;99.90;;;;;;4919617;29;19930;-89
2023/01/03 03:58:47;;;;;;;20.55;10.35;;;-1.00;99.90;;;;;;4921913;29;20118;-88
2023/01/03 04:01:19;;;;;;;22.00;10.05;;;-1.00;99.90;;;;;;4893873;29;20179;-88
2023/01/03 04:03:47;;;;;;;26.15;12.07;;;-0.90;99.90;;;;;;4935407;29;20031;-87
2023/01/03 04:06:28;;;;;;;22.80;11.80;;;-0.80;99.90;;;;;;4935401;29;20051;-88
2023/01/03 04:08:54;;;;;;;24.55;11.73;;;-0.80;99.90;;;;;;4935493;29;20496;-87
2023/01/03 04:11:19;;;;;;;25.00;11.57;;;-0.80;99.90;;;;;;4936954;29;20031;-88
2023/01/03 04:13:45;;;;;;;21.77;10.00;;;-0.70;99.90;;;;;;4935336;29;20028;-87
2023/01/03 04:16:11;;;;;;;24.10;11.65;;;-0.70;99.90;;;;;;4935022;29;20032;-88
2023/01/03 04:18:36;;;;;;;29.13;12.60;;;-0.60;99.90;;;;;;4935328;29;20038;-88
2023/01/03 04:21:02;;;;;;;23.60;11.68;;;-0.60;99.90;;;;;;4927512;29;20135;-88
2023/01/03 04:23:28;;;;;;;25.58;10.07;;;-0.70;99.90;;;;;;4951270;29;20462;-88
2023/01/03 04:25:53;;;;;;;22.65;10.43;;;-0.70;99.90;;;;;;4951021;29;20449;-88
2023/01/03 04:28:19;;;;;;;23.13;10.93;;;-0.70;99.90;;;;;;4951101;29;20401;-87
2023/01/03 04:30:45;;;;;;;24.33;10.57;;;-0.70;99.90;;;;;;4951213;29;20073;-87
2023/01/03 04:33:11;;;;;;;29.83;12.88;;;-0.80;99.90;;;;;;4951200;29;20196;-88
2023/01/03 04:35:37;;;;;;;31.38;12.57;;;-0.80;99.90;;;;;;4951046;29;20147;-87
2023/01/03 04:38:04;;;;;;;26.38;11.80;;;-0.80;99.90;;;;;;4951180;29;20422;-88
2023/01/03 04:40:29;;;;;;;27.05;11.35;;;-0.80;99.90;;;;;;4951248;29;20024;-87
2023/01/03 04:45:39;;;;;;;23.20;11.18;;;-0.70;99.90;;;;;;4938180;29;20142;-87
2023/01/03 04:48:06;;;;;;;24.02;12.18;;;-0.60;99.90;;;;;;4953819;29;20140;-88
2023/01/03 04:50:32;;;;;;;22.70;11.43;;;-0.40;99.90;;;;;;4953958;29;20024;-87
2023/01/03 04:52:58;;;;;;;26.55;11.63;;;-0.40;99.90;;;;;;4953480;29;20027;-87
2023/01/03 04:55:23;;;;;;;28.23;13.05;;;-0.40;99.90;;;;;;4953337;29;20083;-88
2023/01/03 04:57:49;;;;;;;31.25;13.35;;;-0.30;99.90;;;;;;4951749;29;20159;-88
2023/01/03 05:00:15;;;;;;;25.65;12.55;;;-0.30;99.90;;;;;;4951337;29;20032;-87
2023/01/03 05:02:41;;;;;;;25.08;12.43;;;-0.30;99.90;;;;;;4936842;29;20181;-87
2023/01/03 05:05:07;;;;;;;28.40;12.77;;;-0.40;99.90;;;;;;4951290;29;20614;-87
2023/01/03 05:07:33;;;;;;;28.25;13.15;;;-0.30;99.90;;;;;;4951745;29;20027;-88
2023/01/03 05:09:58;;;;;;;29.65;12.90;;;-0.30;99.90;;;;;;4951085;29;20038;-88
2023/01/03 05:12:25;;;;;;;25.42;11.43;;;-0.30;99.90;;;;;;4951040;29;20172;-87
2023/01/03 05:14:51;;;;;;;29.55;14.18;;;-0.20;99.90;;;;;;4950838;29;20070;-88
2023/01/03 05:17:19;;;;;;;31.05;13.02;;;-0.20;99.90;;;;;;4951157;29;20063;-88
2023/01/03 05:27:58;;;;;;;24.83;12.27;;;0.10;99.90;;;;;;4939969;29;20054;-89
2023/01/03 05:30:24;;;;;;;33.45;15.05;;;0.10;99.90;;;;;;4938580;29;20066;-88
2023/01/03 05:32:49;;;;;;;23.88;12.63;;;0.20;99.90;;;;;;4938449;29;20063;-89
2023/01/03 05:35:15;;;;;;;29.50;13.88;;;0.30;99.90;;;;;;4938432;29;20508;-88
2023/01/03 05:37:41;;;;;;;27.55;14.07;;;0.30;99.90;;;;;;4938781;29;20066;-89
2023/01/03 05:40:07;;;;;;;27.45;14.05;;;0.40;99.90;;;;;;4936761;29;20031;-88
2023/01/03 05:42:33;;;;;;;38.10;16.48;;;0.40;99.90;;;;;;4938968;29;20035;-88
2023/01/03 05:44:58;;;;;;;31.20;17.10;;;0.50;99.90;;;;;;4938405;29;20032;-89
2023/01/03 05:47:24;;;;;;;29.70;14.60;;;0.50;99.90;;;;;;4938479;29;20043;-89
2023/01/03 05:49:50;;;;;;;35.38;16.13;;;0.60;99.90;;;;;;4938718;29;20031;-89
2023/01/03 05:52:16;;;;;;;32.92;15.57;;;0.60;99.90;;;;;;4938399;29;20031;-89
2023/01/03 05:54:41;;;;;;;28.00;14.15;;;0.70;99.90;;;;;;4938349;29;20478;-89
2023/01/03 05:57:07;;;;;;;36.05;17.63;;;0.80;99.90;;;;;;4938236;29;20462;-90
2023/01/03 05:59:33;;;;;;;33.35;16.15;;;0.80;99.90;;;;;;4938286;29;20083;-90
2023/01/03 06:01:58;;;;;;;28.73;14.50;;;0.90;99.90;;;;;;4938281;29;20092;-89
2023/01/03 06:04:24;;;;;;;31.95;15.15;;;0.90;99.90;;;;;;4938060;29;20126;-89
2023/01/03 06:06:50;;;;;;;30.13;14.40;;;1.00;99.90;;;;;;4938009;29;20044;-90
2023/01/03 06:09:16;;;;;;;34.03;15.45;;;1.00;99.90;;;;;;4938035;29;20056;-89
2023/01/03 06:11:42;;;;;;;26.10;12.25;;;1.00;99.90;;;;;;4937852;29;20032;-89
2023/01/03 06:14:07;;;;;;;35.30;16.40;;;1.00;99.90;;;;;;4937942;29;20028;-89
2023/01/03 06:19:17;;;;;;;32.22;15.25;;;1.00;99.90;;;;;;4938890;29;20046;-90
2023/01/03 06:21:43;;;;;;;35.38;16.45;;;1.00;99.90;;;;;;4950902;29;20044;-90
2023/01/03 06:24:08;;;;;;;40.90;17.83;;;1.10;99.90;;;;;;4953902;29;20024;-90
2023/01/03 06:26:35;;;;;;;32.35;16.02;;;1.10;99.90;;;;;;4953391;29;20493;-89
2023/01/03 06:29:01;;;;;;;36.13;17.08;;;1.20;99.90;;;;;;4953457;29;20500;-90
2023/01/03 06:31:27;;;;;;;35.22;16.25;;;1.20;99.90;;;;;;4952999;28;20032;-90
2023/01/03 06:33:52;;;;;;;29.02;13.23;;;1.20;99.90;;;;;;4953791;29;20032;-90
2023/01/03 06:36:20;;;;;;;39.50;17.10;;;1.20;99.90;;;;;;4953801;29;20046;-91
2023/01/03 06:38:46;;;;;;;28.80;13.98;;;1.20;99.90;;;;;;4953253;29;20032;-90
2023/01/03 06:41:13;;;;;;;33.83;17.13;;;1.20;99.90;;;;;;4953478;29;20383;-91
2023/01/03 06:43:39;;;;;;;34.80;17.98;;;1.30;99.90;;;;;;4953445;29;20024;-90
2023/01/03 06:54:24;;;;;;;38.80;18.25;;;1.50;99.90;;;;;;4937933;29;20042;-90
2023/01/03 06:56:50;;;;;;;49.70;19.33;;;1.60;99.90;;;;;;4952770;29;20063;-90
2023/01/03 06:59:16;;;;;;;38.80;17.67;;;1.70;99.90;;;;;;4953033;29;20052;-90
2023/01/03 07:01:46;;;;;;;36.92;15.32;;;1.90;99.90;;;;;;4952950;29;20119;-89
2023/01/03 07:04:12;;;;;;;29.63;13.70;;;1.90;99.90;;;;;;4952813;29;20024;-89
2023/01/03 07:06:39;;;;;;;29.50;12.88;;;2.00;99.90;;;;;;4952450;29;20513;-90
2023/01/03 07:09:05;;;;;;;32.50;14.20;;;2.20;99.90;;;;;;4952896;29;20123;-90
2023/01/03 07:11:30;;;;;;;23.05;12.30;;;2.30;99.90;;;;;;4952675;29;20028;-90
2023/01/03 07:13:59;;;;;;;25.35;12.65;;;2.40;99.90;;;;;;4952428;29;20385;-90
2023/01/03 07:16:36;;;;;;;18.52;10.70;;;2.50;99.90;;;;;;4952605;29;20478;-90
2023/01/03 07:19:03;;;;;;;22.13;12.40;;;2.70;99.90;;;;;;4952970;29;20490;-91
2023/01/03 07:21:31;;;;;;;20.15;9.98;;;2.80;99.90;;;;;;4952570;29;20047;-90
2023/01/03 07:24:02;;;;;;;16.50;9.18;;;2.90;99.90;;;;;;4952785;29;20191;-90
2023/01/03 07:26:29;;;;;;;19.08;9.60;;;3.00;99.90;;;;;;4938071;29;20039;-90
2023/01/03 07:28:56;;;;;;;18.08;8.77;;;3.10;99.90;;;;;;4953139;29;20032;-89
2023/01/03 07:31:22;;;;;;;19.60;8.25;;;3.10;99.90;;;;;;4952112;29;20159;-91
2023/01/03 07:33:48;;;;;;;16.00;7.60;;;3.20;99.90;;;;;;4952247;29;20024;-90
2023/01/03 07:36:14;;;;;;;14.05;7.72;;;3.30;99.90;;;;;;4952176;29;20032;-90
2023/01/03 07:38:42;;;;;;;14.70;6.28;;;3.40;99.90;;;;;;4951861;29;20067;-90
2023/01/03 07:41:08;;;;;;;16.48;8.18;;;3.50;99.90;;;;;;4952045;29;20024;-89
2023/01/03 07:43:36;;;;;;;21.67;9.80;;;3.50;99.90;;;;;;4951489;28;20059;-89
2023/01/03 07:46:15;;;;;;;20.35;8.77;;;3.60;99.90;;;;;;4951764;29;20082;-89
2023/01/03 07:48:42;;;;;;;17.65;7.93;;;3.60;99.90;;;;;;4935899;29;20026;-91
2023/01/03 07:51:09;;;;;;;21.23;9.45;;;3.70;99.90;;;;;;4951988;29;20027;-89
2023/01/03 07:53:35;;;;;;;18.98;9.27;;;3.70;99.90;;;;;;4951867;29;20054;-90
2023/01/03 07:56:06;;;;;;;13.27;6.95;;;3.80;99.90;;;;;;4952045;29;20123;-90
2023/01/03 07:58:32;;;;;;;17.58;8.88;;;3.80;99.90;;;;;;4951655;29;20024;-89
2023/01/03 08:01:12;;;;;;;17.40;6.40;;;3.80;99.90;;;;;;4951980;29;20389;-90
2023/01/03 08:03:39;;;;;;;14.18;7.30;;;3.90;99.90;;;;;;4951737;29;20020;-90
2023/01/03 08:06:07;;;;;;;16.60;7.35;;;3.90;99.90;;;;;;4951711;29;20043;-90
2023/01/03 08:08:34;;;;;;;15.45;8.35;;;4.00;99.90;;;;;;4951580;29;20024;-90
2023/01/03 08:13:44;;;;;;;12.60;6.63;;;4.00;99.90;;;;;;4937069;29;20122;-88
2023/01/03 08:16:13;;;;;;;10.52;6.68;;;4.10;99.90;;;;;;4951221;29;20027;-89
2023/01/03 08:18:43;;;;;;;7.88;4.53;;;4.10;99.90;;;;;;4951735;29;20287;-88
2023/01/03 08:21:13;;;;;;;14.35;6.82;;;4.20;99.90;;;;;;4951280;29;20079;-88
2023/01/03 08:23:40;;;;;;;13.02;6.55;;;4.20;99.90;;;;;;4954143;29;20066;-88
2023/01/03 08:26:11;;;;;;;11.88;6.80;;;4.20;99.90;;;;;;4955091;29;20047;-88
2023/01/03 08:28:43;;;;;;;13.95;6.72;;;4.30;99.90;;;;;;4955080;29;20118;-88
2023/01/03 08:31:12;;;;;;;13.20;6.35;;;4.30;99.90;;;;;;4939534;29;20020;-89
2023/01/03 08:33:48;;;;;;;12.27;6.40;;;4.40;99.90;;;;;;4953912;29;20034;-90
2023/01/03 08:36:14;;;;;;;13.63;6.63;;;4.40;99.90;;;;;;4936257;29;20079;-90
2023/01/03 08:38:53;;;;;;;15.30;7.25;;;4.40;99.90;;;;;;4951240;29;20031;-89
2023/01/03 08:41:23;;;;;;;13.32;7.05;;;4.50;99.90;;;;;;4951287;29;20032;-88
2023/01/03 08:43:49;;;;;;;16.52;7.70;;;4.60;99.90;;;;;;4951208;29;20062;-89
2023/01/03 08:46:16;;;;;;;12.60;6.93;;;4.60;99.90;;;;;;4951034;29;20058;-89
2023/01/03 08:48:42;;;;;;;15.45;7.43;;;4.60;99.90;;;;;;4951103;29;20027;-89
2023/01/03 08:51:08;;;;;;;17.35;7.95;;;4.70;99.90;;;;;;4950952;29;20032;-88
2023/01/03 08:53:34;;;;;;;19.02;7.35;;;4.70;99.90;;;;;;4951219;29;20032;-89
2023/01/03 08:55:59;;;;;;;19.30;8.30;;;4.70;99.90;;;;;;4953923;28;20122;-89
2023/01/03 08:58:25;;;;;;;16.38;8.13;;;4.80;99.90;;;;;;4955110;29;20024;-88
2023/01/03 09:00:51;;;;;;;14.50;6.63;;;4.80;99.90;;;;;;4954928;29;20497;-89
2023/01/03 09:03:18;;;;;;;16.52;8.05;;;4.90;99.90;;;;;;4940326;29;20031;-89
2023/01/03 09:05:43;;;;;;;17.02;7.70;;;4.90;99.90;;;;;;4954911;29;20039;-89
2023/01/03 09:08:09;;;;;;;13.32;6.05;;;5.00;99.90;;;;;;4955065;29;20040;-89
2023/01/03 09:10:35;;;;;;;13.00;6.38;;;5.10;99.90;;;;;;4954993;29;20028;-89
2023/01/03 09:13:03;;;;;;;10.27;6.07;;;5.10;99.90;;;;;;4955037;29;20055;-89
2023/01/03 09:15:28;;;;;;;10.20;5.50;;;5.20;99.90;;;;;;4939965;29;20032;-88
2023/01/03 09:17:55;;;;;;;9.35;4.90;;;5.20;99.90;;;;;;4954840;29;20024;-89
2023/01/03 09:20:21;;;;;;;11.80;6.38;;;5.20;99.90;;;;;;4954441;29;20054;-89
2023/01/03 09:22:47;;;;;;;10.88;5.55;;;5.30;99.90;;;;;;4954773;29;20032;-88
2023/01/03 09:25:14;;;;;;;15.75;6.47;;;5.40;99.90;;;;;;4954441;29;20027;-89
2023/01/03 09:27:44;;;;;;;13.10;7.60;;;5.30;99.90;;;;;;4954708;29;20031;-89
2023/01/03 09:30:10;;;;;;;12.27;6.25;;;5.40;99.90;;;;;;4954617;29;20051;-89
2023/01/03 09:32:36;;;;;;;11.88;6.60;;;5.40;99.90;;;;;;4954574;29;20126;-90
2023/01/03 09:35:01;;;;;;;13.00;6.40;;;5.50;99.90;;;;;;4954716;29;20023;-90
2023/01/03 09:37:27;;;;;;;8.63;5.22;;;5.40;99.90;;;;;;4954605;29;20031;-90
2023/01/03 09:39:52;;;;;;;14.27;6.45;;;5.50;99.90;;;;;;4954349;29;20514;-90
2023/01/03 09:45:15;;;;;;;10.77;5.68;;;5.60;99.90;;;;;;4939603;29;20096;-89
2023/01/03 09:47:42;;;;;;;10.93;6.22;;;5.60;99.90;;;;;;4954458;29;20035;-89
2023/01/03 09:50:22;;;;;;;9.65;5.45;;;5.60;99.90;;;;;;4954430;29;20078;-89
2023/01/03 10:04:42;;;;;;;10.43;5.38;;;6.00;99.90;;;;;;4939288;29;20183;-89
2023/01/03 10:07:27;;;;;;;9.30;5.47;;;6.00;99.90;;;;;;4953210;28;20042;-89
2023/01/03 10:10:16;;;;;;;7.60;4.72;;;6.00;99.90;;;;;;4937761;29;20039;-90
2023/01/03 10:13:03;;;;;;;8.75;4.60;;;6.10;99.90;;;;;;4937929;29;20027;-89
2023/01/03 10:16:04;;;;;;;6.93;3.97;;;6.20;99.90;;;;;;4937682;29;20157;-90
2023/01/03 10:19:00;;;;;;;8.40;5.07;;;6.20;99.90;;;;;;4937789;29;20034;-90
2023/01/03 10:21:51;;;;;;;8.85;5.00;;;6.30;99.90;;;;;;4937530;29;20063;-90
2023/01/03 10:24:31;;;;;;;9.38;4.68;;;6.30;99.90;;;;;;4937430;29;20031;-90
2023/01/03 10:27:20;;;;;;;8.87;4.43;;;6.30;99.90;;;;;;4953517;29;20051;-90
2023/01/03 10:29:48;;;;;;;8.73;4.43;;;6.30;99.90;;;;;;4937629;29;20407;-89
2023/01/03 10:32:32;;;;;;;9.38;5.13;;;6.30;99.90;;;;;;4953413;29;20496;-88
2023/01/03 10:35:22;;;;;;;6.10;4.00;;;6.40;99.90;;;;;;4937210;29;20023;-89
2023/01/03 10:37:52;;;;;;;6.75;3.45;;;6.40;99.90;;;;;;4953740;29;20039;-90
2023/01/03 10:40:18;;;;;;;6.10;3.70;;;6.40;99.90;;;;;;4954365;29;20028;-89
2023/01/03 10:42:44;;;;;;;5.75;3.15;;;6.40;99.90;;;;;;4953617;29;20183;-89
2023/01/03 10:45:16;;;;;;;4.90;3.10;;;6.40;99.90;;;;;;4953306;29;20039;-90
2023/01/03 10:47:43;;;;;;;7.20;3.55;;;6.40;99.90;;;;;;4952843;29;20561;-89
2023/01/03 10:50:20;;;;;;;4.60;2.65;;;6.50;99.90;;;;;;4953229;29;20028;-90
2023/01/03 10:52:48;;;;;;;6.80;4.40;;;6.50;99.90;;;;;;4953511;29;20032;-90
2023/01/03 10:55:17;;;;;;;4.60;3.10;;;6.50;99.90;;;;;;4952982;29;20490;-89
2023/01/03 10:58:11;;;;;;;5.75;3.25;;;6.50;99.90;;;;;;4952857;29;20030;-89
2023/01/03 11:00:37;;;;;;;5.53;3.75;;;6.60;99.90;;;;;;4953445;29;20031;-89
2023/01/03 11:03:28;;;;;;;8.93;3.70;;;6.60;99.90;;;;;;4952739;29;20294;-88
2023/01/03 11:05:56;;;;;;;7.53;4.00;;;6.70;99.90;;;;;;4946092;29;20040;-89
2023/01/03 11:08:36;;;;;;;7.32;4.10;;;6.70;99.90;;;;;;4936933;29;20035;-88
2023/01/03 11:11:02;;;;;;;8.10;3.72;;;6.80;99.90;;;;;;4952814;29;20438;-90
2023/01/03 11:13:39;;;;;;;5.70;3.83;;;6.80;99.90;;;;;;4952771;29;20031;-89
2023/01/03 11:16:17;;;;;;;8.15;3.58;;;6.90;99.90;;;;;;4952541;29;20508;-90
2023/01/03 11:18:57;;;;;;;5.18;3.00;;;6.90;99.90;;;;;;4952125;28;20030;-90
2023/01/03 11:21:31;;;;;;;6.22;2.85;;;7.00;99.90;;;;;;4952209;29;20516;-90
2023/01/03 11:24:22;;;;;;;4.55;3.30;;;7.10;99.90;;;;;;4952564;29;20070;-90
2023/01/03 11:27:10;;;;;;;5.70;3.17;;;7.10;99.90;;;;;;4952518;29;20035;-90
2023/01/03 11:30:14;;;;;;;7.78;3.22;;;7.20;99.90;;;;;;4955149;29;20205;-90
2023/01/03 11:33:12;;;;;;;6.95;3.05;;;7.20;99.90;;;;;;4897668;29;20554;-90
2023/01/03 11:35:43;;;;;;;4.40;2.42;;;7.20;99.90;;;;;;4888058;29;20553;-90
2023/01/03 11:38:33;;;;;;;8.48;4.18;;;7.30;99.90;;;;;;4882782;29;20108;-90
2023/01/03 11:41:26;;;;;;;5.28;3.92;;;7.40;99.90;;;;;;4898030;29;20119;-89
2023/01/03 11:44:13;;;;;;;7.93;4.28;;;7.40;99.90;;;;;;4882290;29;20041;-91
2023/01/03 11:47:02;;;;;;;6.95;4.68;;;7.50;99.90;;;;;;4897435;29;20079;-91
2023/01/03 11:49:33;;;;;;;11.20;4.47;;;7.50;99.90;;;;;;4883294;29;20119;-88
2023/01/03 11:52:12;;;;;;;12.48;5.32;;;7.50;99.90;;;;;;4889968;29;20041;-91
2023/01/03 11:54:55;;;;;;;12.63;5.22;;;7.50;99.90;;;;;;4890247;29;20068;-90
2023/01/03 11:57:39;;;;;;;10.60;5.78;;;7.50;99.90;;;;;;4889176;29;20563;-90
2023/01/03 12:00:23;;;;;;;15.20;5.45;;;7.60;99.90;;;;;;4902914;29;20092;-90
2023/01/03 12:03:05;;;;;;;11.27;5.93;;;7.60;99.90;;;;;;4899185;29;20066;-90
2023/01/03 12:05:46;;;;;;;8.98;6.00;;;7.60;99.90;;;;;;4960347;29;20031;-90
2023/01/03 12:08:11;;;;;;;8.27;5.47;;;7.60;99.90;;;;;;4965097;29;20497;-89
2023/01/03 12:10:58;;;;;;;8.75;4.95;;;7.60;99.90;;;;;;4940446;29;20035;-91
2023/01/03 12:13:55;;;;;;;15.93;8.63;;;7.60;99.90;;;;;;4940577;29;20100;-90
2023/01/03 12:16:30;;;;;;;8.05;5.38;;;7.60;99.90;;;;;;4939416;29;20034;-89
2023/01/03 12:19:16;;;;;;;8.00;4.63;;;7.60;99.90;;;;;;4956889;29;20445;-89
2023/01/03 12:21:47;;;;;;;10.52;4.68;;;7.60;99.90;;;;;;4944193;29;20083;-90
2023/01/03 12:24:33;;;;;;;6.78;4.78;;;7.70;99.90;;;;;;4953395;29;20110;-91
2023/01/03 12:27:22;;;;;;;7.95;4.45;;;7.70;99.90;;;;;;4952585;29;20043;-89
2023/01/03 12:30:23;;;;;;;7.28;4.50;;;7.70;99.90;;;;;;4936408;29;20147;-89
2023/01/03 12:32:52;;;;;;;;;;;7.70;99.90;;;;;;4920856;29;20031;-89
2023/01/03 12:35:37;;;;;;;10.10;5.38;;;7.70;99.90;;;;;;4937091;29;19968;-91
2023/01/03 12:38:05;;;;;;;10.55;5.85;;;7.70;99.90;;;;;;4951568;29;20024;-90
2023/01/03 12:40:50;;;;;;;6.85;4.53;;;7.80;99.90;;;;;;4951608;29;20040;-90
2023/01/03 12:43:23;;;;;;;10.13;3.90;;;7.80;99.90;;;;;;4952068;29;20062;-90
2023/01/03 12:46:10;;;;;;;6.40;3.95;;;7.90;99.90;;;;;;4935772;29;20580;-90
2023/01/03 12:49:05;;;;;;;5.28;3.20;;;8.00;99.90;;;;;;4951471;29;20024;-91
2023/01/03 12:51:31;;;;;;;7.43;3.72;;;8.00;99.90;;;;;;4951848;29;20028;-90
2023/01/03 12:54:12;;;;;;;5.47;3.55;;;8.10;99.90;;;;;;4951436;29;20120;-90
2023/01/03 12:57:05;;;;;;;6.97;3.38;;;8.20;99.90;;;;;;4936342;29;20035;-90
2023/01/03 13:00:00;;;;;;;7.53;3.33;;;8.20;99.90;;;;;;4951481;29;20028;-90
2023/01/03 13:02:44;;;;;;;9.13;3.00;;;8.30;99.90;;;;;;4931010;29;20046;-90
2023/01/03 13:05:26;;;;;;;6.40;3.58;;;8.30;99.90;;;;;;4935695;29;20024;-92
2023/01/03 13:07:58;;;;;;;7.38;3.00;;;8.30;99.90;;;;;;4936603;29;20032;-90
2023/01/03 13:10:28;;;;;;;4.75;2.95;;;8.40;99.90;;;;;;4935411;29;20024;-89
2023/01/03 13:12:54;;;;;;;;;;;8.40;99.90;;;;;;4951607;29;20036;-88
2023/01/03 13:15:34;;;;;;;6.25;3.08;;;8.40;99.90;;;;;;4935430;29;20082;-90
2023/01/03 13:18:21;;;;;;;6.80;2.50;;;8.50;99.90;;;;;;4951039;29;20092;-90
2023/01/03 13:20:49;;;;;;;6.18;2.65;;;8.50;99.90;;;;;;4935057;29;20039;-90
2023/01/03 13:23:29;;;;;;;4.90;2.90;;;8.50;99.90;;;;;;4936531;29;20028;-90
2023/01/03 13:26:04;;;;;;;8.32;2.20;;;8.50;99.90;;;;;;4935348;29;20205;-90
2023/01/03 13:28:35;;;;;;;4.68;2.30;;;8.50;99.90;;;;;;4935390;29;20075;-90
2023/01/03 13:31:20;;;;;;;5.07;2.40;;;8.50;99.90;;;;;;4950976;29;20035;-91
2023/01/03 13:34:09;;;;;;;4.32;2.40;;;8.50;99.90;;;;;;4935207;29;20044;-91
2023/01/03 13:37:00;;;;;;;5.93;1.50;;;8.60;99.90;;;;;;4951093;29;20032;-91
2023/01/03 13:39:56;;;;;;;1.65;1.27;;;8.60;99.90;;;;;;4942845;29;20046;-91
2023/01/03 13:42:33;;;;;;;2.60;1.52;;;8.60;99.90;;;;;;4952208;28;20059;-89
2023/01/03 13:45:14;;;;;;;5.18;1.98;;;8.60;99.90;;;;;;4938600;29;20019;-91
2023/01/03 13:47:44;;;;;;;2.78;1.50;;;8.60;99.90;;;;;;4938516;29;20071;-89
2023/01/03 13:50:21;;;;;;;5.28;1.60;;;8.70;99.90;;;;;;4954484;29;20028;-90
2023/01/03 13:52:57;;;;;;;6.22;1.83;;;8.70;99.90;;;;;;4939415;29;20035;-90
2023/01/03 13:55:32;;;;;;;8.02;1.83;;;8.70;99.90;;;;;;4938006;29;20043;-90
2023/01/03 13:57:58;;;;;;;6.93;1.83;;;8.70;99.90;;;;;;4938120;29;20035;-90
2023/01/03 14:00:24;;;;;;;5.00;1.73;;;8.70;99.90;;;;;;4954402;29;20104;-91
2023/01/03 14:03:34;;;;;;;6.60;2.08;;;8.70;99.90;;;;;;4954500;29;20549;-89
2023/01/03 14:06:09;;;;;;;5.35;1.90;;;8.70;99.90;;;;;;4953660;29;20083;-89
2023/01/03 14:09:08;;;;;;;4.05;1.90;;;8.80;99.90;;;;;;4938046;29;20062;-92